Hakalau, HI (96710)

3:38 PM HST on March 06, 2015 (GMT -1000)
Hakalau | Change Station
CLOSE
Current Station
Personal Weather Station
Location: Hakalau, HI
Elevation: 1020 ft
Nearby Weather Stations

Elev 1020 ft 19.87 °N, 155.15 °W | Updated 6 minutes ago

Light Rain
Light Rain Mist
64.4 °F
Feels Like 64.4 °F
N
3.0
Wind Variable Wind from NE
Gusts 4.0 mph

Today
High -- | Low -- °F
--% Chance of Precip.
Yesterday
High -- | Low -- °F
Precip. -- in
6:36 AM 6:27 PM
Full, 98% visible
Pressure 29.87 in
Visibility 4.0 miles
Clouds Few 1100 ft
Mostly Cloudy 2800 ft
Overcast 6500 ft
Dew Point 64 °F
Humidity 99%
Rainfall in
Snow Depth Not available.
UV 2 out of 12
Pollen Not available.
Air Quality Not available.
Flu Activity Not available.
SPECI PHTO 070126Z 34014KT 4SM -RA BR FEW011 BKN028 OVC065 21/19 A2987 RMK AO2 P0001 T02060189

More Conditions Fewer Conditions

Pressure 29.87 in
Visibility 4.0 miles
Clouds Few 1100 ft
Mostly Cloudy 2800 ft
Overcast 6500 ft
Dew Point 64 °F
Humidity 99%
Rainfall in
Snow Depth Not available.
UV 2 out of 12
Pollen Not available.
Air Quality Not available.
Flu Activity Not available.
SPECI PHTO 070126Z 34014KT 4SM -RA BR FEW011 BKN028 OVC065 21/19 A2987 RMK AO2 P0001 T02060189

More Conditions Fewer Conditions

10-Day Weather Forecast

Almanac

Astronomy

Mar. 06, 2015 Rise Set
Actual Time
Civil Twilight
Nautical Twilight
Astronomical Twilight
Moon
Length of Visible Light
Length of Day
Tomorrow will be .
, % of the Moon is Illuminated

Today's Extremes

State Highs State Lows

Community

WunderPhotos

Upload Photos

1,803,491 photos uploaded!

WunderBlogs® & News

Nearby

Air Quality

  Air Quality AQ Index Pollutant
Not available.

Snow Depth

Station Depth Elevation

Earthquake Activity

City Distance Mag. Time & Date
Minimum magnitude displayed is 2.5.

Coastal Water Temperatures

Place Temperature

Nearby Weather Stations